sensor_id;sensor_type;location;lat;lon;timestamp;pressure;altitude;pressure_sealevel;temperature;humidity
17054;BME280;8643;48.824;11.422;2023-02-21T00:02:20;97366.22;;;0.73;100.00
17054;BME280;8643;48.824;11.422;2023-02-21T00:05:06;97361.47;;;0.85;100.00
17054;BME280;8643;48.824;11.422;2023-02-21T00:07:53;97359.09;;;0.94;100.00
17054;BME280;8643;48.824;11.422;2023-02-21T00:10:38;97354.00;;;0.98;100.00
17054;BME280;8643;48.824;11.422;2023-02-21T00:13:26;97363.22;;;1.02;100.00
17054;BME280;8643;48.824;11.422;2023-02-21T00:16:14;97345.13;;;1.02;100.00
17054;BME280;8643;48.824;11.422;2023-02-21T00:19:01;97350.00;;;1.05;100.00
17054;BME280;8643;48.824;11.422;2023-02-21T00:21:48;97352.22;;;1.14;100.00
17054;BME280;8643;48.824;11.422;2023-02-21T00:24:33;97347.53;;;0.99;100.00
17054;BME280;8643;48.824;11.422;2023-02-21T00:27:20;97344.00;;;0.93;100.00
17054;BME280;8643;48.824;11.422;2023-02-21T00:30:10;97347.22;;;0.90;100.00
17054;BME280;8643;48.824;11.422;2023-02-21T00:32:57;97343.75;;;0.95;100.00
17054;BME280;8643;48.824;11.422;2023-02-21T00:35:43;97347.22;;;0.90;100.00
17054;BME280;8643;48.824;11.422;2023-02-21T00:38:29;97350.09;;;0.78;100.00
17054;BME280;8643;48.824;11.422;2023-02-21T00:41:15;97346.72;;;0.93;100.00
17054;BME280;8643;48.824;11.422;2023-02-21T00:44:01;97343.13;;;0.82;100.00
17054;BME280;8643;48.824;11.422;2023-02-21T00:46:50;97348.19;;;0.73;100.00
17054;BME280;8643;48.824;11.422;2023-02-21T00:49:35;97345.25;;;0.75;100.00
17054;BME280;8643;48.824;11.422;2023-02-21T00:52:21;97333.63;;;0.75;100.00
17054;BME280;8643;48.824;11.422;2023-02-21T00:55:07;97339.00;;;0.75;100.00
17054;BME280;8643;48.824;11.422;2023-02-21T00:57:53;97335.56;;;0.84;100.00
17054;BME280;8643;48.824;11.422;2023-02-21T01:00:40;97331.47;;;0.77;100.00
17054;BME280;8643;48.824;11.422;2023-02-21T01:03:27;97333.78;;;0.58;100.00
17054;BME280;8643;48.824;11.422;2023-02-21T01:06:13;97325.00;;;0.40;100.00
17054;BME280;8643;48.824;11.422;2023-02-21T01:08:59;97330.94;;;0.42;100.00
17054;BME280;8643;48.824;11.422;2023-02-21T01:11:45;97318.81;;;0.40;100.00
17054;BME280;8643;48.824;11.422;2023-02-21T01:14:31;97322.09;;;0.47;100.00
17054;BME280;8643;48.824;11.422;2023-02-21T01:17:17;97324.78;;;0.47;100.00
17054;BME280;8643;48.824;11.422;2023-02-21T01:20:07;97316.09;;;0.34;100.00
17054;BME280;8643;48.824;11.422;2023-02-21T01:22:53;97315.56;;;0.38;100.00
17054;BME280;8643;48.824;11.422;2023-02-21T01:25:41;97313.00;;;0.53;100.00
17054;BME280;8643;48.824;11.422;2023-02-21T01:28:28;97307.38;;;0.60;100.00
17054;BME280;8643;48.824;11.422;2023-02-21T01:31:17;97309.75;;;0.51;100.00
17054;BME280;8643;48.824;11.422;2023-02-21T01:34:03;97307.34;;;0.54;100.00
17054;BME280;8643;48.824;11.422;2023-02-21T01:36:51;97304.66;;;0.54;100.00
17054;BME280;8643;48.824;11.422;2023-02-21T01:39:37;97302.41;;;0.41;100.00
17054;BME280;8643;48.824;11.422;2023-02-21T01:42:23;97305.25;;;0.29;100.00
17054;BME280;8643;48.824;11.422;2023-02-21T01:45:50;97304.19;;;0.30;100.00
17054;BME280;8643;48.824;11.422;2023-02-21T01:48:36;97297.38;;;0.23;100.00
17054;BME280;8643;48.824;11.422;2023-02-21T01:51:30;97288.22;;;0.24;100.00
17054;BME280;8643;48.824;11.422;2023-02-21T01:54:29;97293.63;;;0.24;100.00
17054;BME280;8643;48.824;11.422;2023-02-21T01:57:17;97298.97;;;0.18;100.00
17054;BME280;8643;48.824;11.422;2023-02-21T02:00:09;97294.22;;;0.31;100.00
17054;BME280;8643;48.824;11.422;2023-02-21T02:02:59;97292.50;;;0.52;100.00
17054;BME280;8643;48.824;11.422;2023-02-21T02:05:51;97294.81;;;0.38;100.00
17054;BME280;8643;48.824;11.422;2023-02-21T02:08:39;97295.16;;;0.14;100.00
17054;BME280;8643;48.824;11.422;2023-02-21T02:11:59;97292.88;;;0.01;100.00
17054;BME280;8643;48.824;11.422;2023-02-21T02:18:23;97292.50;;;-0.13;100.00
17054;BME280;8643;48.824;11.422;2023-02-21T02:21:43;97293.28;;;-0.12;100.00
17054;BME280;8643;48.824;11.422;2023-02-21T02:25:01;97293.53;;;-0.14;100.00
17054;BME280;8643;48.824;11.422;2023-02-21T02:28:07;97296.78;;;-0.12;100.00
17054;BME280;8643;48.824;11.422;2023-02-21T02:31:13;97301.16;;;-0.06;100.00
17054;BME280;8643;48.824;11.422;2023-02-21T02:34:41;97298.81;;;0.03;100.00
17054;BME280;8643;48.824;11.422;2023-02-21T02:37:21;97293.38;;;-0.02;100.00
17054;BME280;8643;48.824;11.422;2023-02-21T02:39:59;97298.97;;;-0.09;100.00
17054;BME280;8643;48.824;11.422;2023-02-21T02:42:45;97290.00;;;-0.20;100.00
17054;BME280;8643;48.824;11.422;2023-02-21T02:45:25;97290.81;;;-0.19;100.00
17054;BME280;8643;48.824;11.422;2023-02-21T02:48:04;97297.53;;;-0.16;100.00
17054;BME280;8643;48.824;11.422;2023-02-21T02:50:39;97288.50;;;-0.05;100.00
17054;BME280;8643;48.824;11.422;2023-02-21T02:53:09;97291.69;;;-0.08;100.00
17054;BME280;8643;48.824;11.422;2023-02-21T02:55:46;97291.44;;;-0.07;100.00
17054;BME280;8643;48.824;11.422;2023-02-21T02:58:18;97290.91;;;-0.09;100.00
17054;BME280;8643;48.824;11.422;2023-02-21T03:01:01;97295.06;;;-0.23;100.00
17054;BME280;8643;48.824;11.422;2023-02-21T03:03:52;97286.94;;;-0.28;100.00
17054;BME280;8643;48.824;11.422;2023-02-21T03:06:33;97288.00;;;-0.29;100.00
17054;BME280;8643;48.824;11.422;2023-02-21T03:09:12;97287.38;;;-0.37;100.00
17054;BME280;8643;48.824;11.422;2023-02-21T03:11:53;97286.06;;;-0.34;100.00
17054;BME280;8643;48.824;11.422;2023-02-21T03:14:29;97285.25;;;-0.34;100.00
17054;BME280;8643;48.824;11.422;2023-02-21T03:17:03;97284.72;;;-0.09;100.00
17054;BME280;8643;48.824;11.422;2023-02-21T03:19:39;97282.00;;;0.18;100.00
17054;BME280;8643;48.824;11.422;2023-02-21T03:22:14;97279.38;;;0.28;100.00
17054;BME280;8643;48.824;11.422;2023-02-21T03:24:46;97283.75;;;0.34;100.00
17054;BME280;8643;48.824;11.422;2023-02-21T03:27:19;97286.69;;;0.33;100.00
17054;BME280;8643;48.824;11.422;2023-02-21T03:30:19;97283.81;;;0.12;100.00
17054;BME280;8643;48.824;11.422;2023-02-21T03:32:51;97287.31;;;0.13;100.00
17054;BME280;8643;48.824;11.422;2023-02-21T03:35:27;97280.59;;;0.10;100.00
17054;BME280;8643;48.824;11.422;2023-02-21T03:37:59;97282.72;;;0.08;100.00
17054;BME280;8643;48.824;11.422;2023-02-21T03:40:30;97273.25;;;0.06;100.00
17054;BME280;8643;48.824;11.422;2023-02-21T03:43:04;97278.16;;;0.09;100.00
17054;BME280;8643;48.824;11.422;2023-02-21T03:45:41;97277.19;;;0.25;100.00
17054;BME280;8643;48.824;11.422;2023-02-21T03:48:14;97273.81;;;0.40;100.00
17054;BME280;8643;48.824;11.422;2023-02-21T03:50:59;97283.34;;;0.53;100.00
17054;BME280;8643;48.824;11.422;2023-02-21T03:53:35;97277.31;;;0.41;100.00
17054;BME280;8643;48.824;11.422;2023-02-21T03:56:05;97280.22;;;0.34;100.00
17054;BME280;8643;48.824;11.422;2023-02-21T03:58:57;97276.22;;;0.36;100.00
17054;BME280;8643;48.824;11.422;2023-02-21T04:01:26;97273.22;;;0.33;100.00
17054;BME280;8643;48.824;11.422;2023-02-21T04:03:55;97277.41;;;0.18;100.00
17054;BME280;8643;48.824;11.422;2023-02-21T04:06:23;97276.22;;;0.04;100.00
17054;BME280;8643;48.824;11.422;2023-02-21T04:08:53;97273.69;;;-0.08;100.00
17054;BME280;8643;48.824;11.422;2023-02-21T04:11:23;97277.69;;;-0.10;100.00
17054;BME280;8643;48.824;11.422;2023-02-21T04:13:53;97277.13;;;-0.12;100.00
17054;BME280;8643;48.824;11.422;2023-02-21T04:16:23;97283.03;;;-0.15;100.00
17054;BME280;8643;48.824;11.422;2023-02-21T04:18:52;97286.78;;;-0.16;100.00
17054;BME280;8643;48.824;11.422;2023-02-21T04:21:24;97285.16;;;-0.17;100.00
17054;BME280;8643;48.824;11.422;2023-02-21T04:23:56;97270.84;;;-0.23;100.00
17054;BME280;8643;48.824;11.422;2023-02-21T04:26:29;97274.88;;;-0.26;100.00
17054;BME280;8643;48.824;11.422;2023-02-21T04:28:58;97264.91;;;-0.25;100.00
17054;BME280;8643;48.824;11.422;2023-02-21T04:31:27;97264.91;;;-0.25;100.00
17054;BME280;8643;48.824;11.422;2023-02-21T04:33:58;97267.28;;;-0.29;100.00
17054;BME280;8643;48.824;11.422;2023-02-21T04:36:41;97271.00;;;-0.35;100.00
17054;BME280;8643;48.824;11.422;2023-02-21T04:39:11;97270.94;;;-0.40;100.00
17054;BME280;8643;48.824;11.422;2023-02-21T04:41:40;97272.44;;;-0.49;100.00
17054;BME280;8643;48.824;11.422;2023-02-21T04:44:09;97274.06;;;-0.48;100.00
17054;BME280;8643;48.824;11.422;2023-02-21T04:46:39;97267.06;;;-0.49;100.00
17054;BME280;8643;48.824;11.422;2023-02-21T04:49:09;97267.56;;;-0.52;100.00
17054;BME280;8643;48.824;11.422;2023-02-21T04:51:38;97266.75;;;-0.53;100.00
17054;BME280;8643;48.824;11.422;2023-02-21T04:54:07;97267.81;;;-0.54;100.00
17054;BME280;8643;48.824;11.422;2023-02-21T04:56:36;97269.41;;;-0.58;100.00
17054;BME280;8643;48.824;11.422;2023-02-21T04:59:06;97265.31;;;-0.61;100.00
17054;BME280;8643;48.824;11.422;2023-02-21T05:01:35;97266.97;;;-0.60;100.00
17054;BME280;8643;48.824;11.422;2023-02-21T05:04:03;97268.31;;;-0.57;100.00
17054;BME280;8643;48.824;11.422;2023-02-21T05:06:33;97275.09;;;-0.54;100.00
17054;BME280;8643;48.824;11.422;2023-02-21T05:09:02;97266.00;;;-0.48;100.00
17054;BME280;8643;48.824;11.422;2023-02-21T05:11:33;97267.13;;;-0.44;100.00
17054;BME280;8643;48.824;11.422;2023-02-21T05:14:03;97262.91;;;-0.35;100.00
17054;BME280;8643;48.824;11.422;2023-02-21T05:16:31;97265.81;;;-0.14;100.00
17054;BME280;8643;48.824;11.422;2023-02-21T05:19:00;97266.47;;;-0.02;100.00
17054;BME280;8643;48.824;11.422;2023-02-21T05:21:32;97259.59;;;0.12;100.00
17054;BME280;8643;48.824;11.422;2023-02-21T05:24:01;97259.63;;;0.17;100.00
17054;BME280;8643;48.824;11.422;2023-02-21T05:26:35;97260.66;;;0.11;100.00
17054;BME280;8643;48.824;11.422;2023-02-21T05:29:05;97254.63;;;-0.01;100.00
17054;BME280;8643;48.824;11.422;2023-02-21T05:31:33;97261.00;;;-0.12;100.00
17054;BME280;8643;48.824;11.422;2023-02-21T05:34:02;97265.06;;;-0.10;100.00
17054;BME280;8643;48.824;11.422;2023-02-21T05:36:30;97267.59;;;0.02;100.00
17054;BME280;8643;48.824;11.422;2023-02-21T05:38:59;97264.75;;;0.19;100.00
17054;BME280;8643;48.824;11.422;2023-02-21T05:41:28;97267.63;;;0.40;100.00
17054;BME280;8643;48.824;11.422;2023-02-21T05:43:56;97268.50;;;0.50;100.00
17054;BME280;8643;48.824;11.422;2023-02-21T05:46:28;97270.13;;;0.51;100.00
17054;BME280;8643;48.824;11.422;2023-02-21T05:49:00;97261.75;;;0.48;100.00
17054;BME280;8643;48.824;11.422;2023-02-21T05:51:34;97269.81;;;0.43;100.00
17054;BME280;8643;48.824;11.422;2023-02-21T05:54:04;97274.25;;;0.27;100.00
17054;BME280;8643;48.824;11.422;2023-02-21T05:56:37;97270.63;;;0.11;100.00
17054;BME280;8643;48.824;11.422;2023-02-21T05:59:07;97267.28;;;-0.02;100.00
17054;BME280;8643;48.824;11.422;2023-02-21T06:01:37;97265.81;;;-0.14;100.00
17054;BME280;8643;48.824;11.422;2023-02-21T06:04:07;97269.94;;;-0.34;100.00
17054;BME280;8643;48.824;11.422;2023-02-21T06:06:36;97267.06;;;-0.49;100.00
17054;BME280;8643;48.824;11.422;2023-02-21T06:09:05;97269.09;;;-0.62;100.00
17054;BME280;8643;48.824;11.422;2023-02-21T06:11:36;97264.16;;;-0.70;100.00
17054;BME280;8643;48.824;11.422;2023-02-21T06:14:13;97268.84;;;-0.82;100.00
17054;BME280;8643;48.824;11.422;2023-02-21T06:16:45;97268.22;;;-0.89;100.00
17054;BME280;8643;48.824;11.422;2023-02-21T06:19:14;97267.59;;;-0.97;100.00
17054;BME280;8643;48.824;11.422;2023-02-21T06:21:44;97262.19;;;-0.97;100.00
17054;BME280;8643;48.824;11.422;2023-02-21T06:24:13;97258.16;;;-0.99;100.00
17054;BME280;8643;48.824;11.422;2023-02-21T06:26:42;97266.53;;;-0.96;100.00
17054;BME280;8643;48.824;11.422;2023-02-21T06:29:11;97278.97;;;-0.89;100.00
17054;BME280;8643;48.824;11.422;2023-02-21T06:31:40;97277.81;;;-0.77;100.00
17054;BME280;8643;48.824;11.422;2023-02-21T06:34:10;97266.41;;;-0.62;100.00
17054;BME280;8643;48.824;11.422;2023-02-21T06:36:39;97269.59;;;-0.38;100.00
17054;BME280;8643;48.824;11.422;2023-02-21T06:39:10;97270.13;;;-0.13;100.00
17054;BME280;8643;48.824;11.422;2023-02-21T06:41:39;97276.50;;;0.08;100.00
17054;BME280;8643;48.824;11.422;2023-02-21T06:44:07;97273.94;;;0.18;100.00
17054;BME280;8643;48.824;11.422;2023-02-21T06:46:36;97276.69;;;0.28;100.00
17054;BME280;8643;48.824;11.422;2023-02-21T06:49:04;97282.50;;;0.47;100.00
17054;BME280;8643;48.824;11.422;2023-02-21T06:51:36;97285.34;;;0.68;100.00
17054;BME280;8643;48.824;11.422;2023-02-21T06:54:06;97280.63;;;0.90;100.00
17054;BME280;8643;48.824;11.422;2023-02-21T06:56:35;97285.41;;;1.26;100.00
17054;BME280;8643;48.824;11.422;2023-02-21T06:59:04;97290.03;;;1.41;100.00
17054;BME280;8643;48.824;11.422;2023-02-21T07:01:32;97285.28;;;1.69;100.00
17054;BME280;8643;48.824;11.422;2023-02-21T07:04:01;97291.22;;;1.76;100.00
17054;BME280;8643;48.824;11.422;2023-02-21T07:06:30;97293.97;;;1.96;100.00
17054;BME280;8643;48.824;11.422;2023-02-21T07:09:01;97297.78;;;2.21;100.00
17054;BME280;8643;48.824;11.422;2023-02-21T07:11:34;97296.72;;;2.43;100.00
17054;BME280;8643;48.824;11.422;2023-02-21T07:14:03;97304.28;;;2.71;100.00
17054;BME280;8643;48.824;11.422;2023-02-21T07:16:32;97295.88;;;2.99;100.00
17054;BME280;8643;48.824;11.422;2023-02-21T07:19:01;97301.13;;;3.45;100.00
17054;BME280;8643;48.824;11.422;2023-02-21T07:21:30;97296.72;;;4.14;100.00
17054;BME280;8643;48.824;11.422;2023-02-21T07:24:00;97303.81;;;4.50;100.00
17054;BME280;8643;48.824;11.422;2023-02-21T07:26:28;97307.56;;;4.83;100.00
17054;BME280;8643;48.824;11.422;2023-02-21T07:28:56;97302.59;;;5.44;100.00
17054;BME280;8643;48.824;11.422;2023-02-21T07:31:25;97297.53;;;5.37;100.00
17054;BME280;8643;48.824;11.422;2023-02-21T07:33:53;97297.75;;;5.41;100.00
17054;BME280;8643;48.824;11.422;2023-02-21T07:36:21;97301.31;;;5.36;100.00
17054;BME280;8643;48.824;11.422;2023-02-21T07:38:50;97303.22;;;5.84;100.00
17054;BME280;8643;48.824;11.422;2023-02-21T07:41:20;97308.88;;;5.87;100.00
17054;BME280;8643;48.824;11.422;2023-02-21T07:43:48;97311.66;;;6.07;100.00
17054;BME280;8643;48.824;11.422;2023-02-21T07:46:17;97306.00;;;6.55;100.00
17054;BME280;8643;48.824;11.422;2023-02-21T07:48:46;97316.72;;;5.89;100.00
17054;BME280;8643;48.824;11.422;2023-02-21T07:51:14;97323.03;;;6.09;100.00
17054;BME280;8643;48.824;11.422;2023-02-21T07:53:43;97325.81;;;6.41;100.00
17054;BME280;8643;48.824;11.422;2023-02-21T07:56:12;97325.41;;;7.00;100.00
17054;BME280;8643;48.824;11.422;2023-02-21T07:58:42;97332.03;;;7.41;100.00
17054;BME280;8643;48.824;11.422;2023-02-21T08:01:12;97330.84;;;7.75;100.00
17054;BME280;8643;48.824;11.422;2023-02-21T08:03:41;97320.03;;;7.97;98.49
17054;BME280;8643;48.824;11.422;2023-02-21T08:06:10;97325.09;;;7.62;98.15
17054;BME280;8643;48.824;11.422;2023-02-21T08:08:39;97323.78;;;7.87;97.88
17054;BME280;8643;48.824;11.422;2023-02-21T08:11:07;97320.03;;;8.34;97.74
17054;BME280;8643;48.824;11.422;2023-02-21T08:13:36;97323.00;;;8.23;98.55
17054;BME280;8643;48.824;11.422;2023-02-21T08:16:06;97324.63;;;8.84;95.74
17054;BME280;8643;48.824;11.422;2023-02-21T08:18:35;97326.63;;;8.92;93.17
17054;BME280;8643;48.824;11.422;2023-02-21T08:21:07;97316.78;;;9.94;91.05
17054;BME280;8643;48.824;11.422;2023-02-21T08:23:36;97328.81;;;10.41;86.78
17054;BME280;8643;48.824;11.422;2023-02-21T08:26:05;97331.72;;;9.87;87.87
17054;BME280;8643;48.824;11.422;2023-02-21T08:28:33;97329.28;;;9.86;87.50
17054;BME280;8643;48.824;11.422;2023-02-21T08:31:05;97324.19;;;9.93;88.64
17054;BME280;8643;48.824;11.422;2023-02-21T08:33:34;97330.56;;;10.37;85.80
17054;BME280;8643;48.824;11.422;2023-02-21T08:36:03;97332.66;;;10.40;84.35
17054;BME280;8643;48.824;11.422;2023-02-21T08:38:32;97337.84;;;11.42;82.22
17054;BME280;8643;48.824;11.422;2023-02-21T08:41:00;97345.47;;;11.36;82.38
17054;BME280;8643;48.824;11.422;2023-02-21T08:43:30;97347.38;;;11.44;81.83
17054;BME280;8643;48.824;11.422;2023-02-21T08:46:00;97338.16;;;11.49;80.35
17054;BME280;8643;48.824;11.422;2023-02-21T08:48:30;97347.88;;;11.29;79.80
17054;BME280;8643;48.824;11.422;2023-02-21T08:50:59;97342.94;;;12.08;76.12
17054;BME280;8643;48.824;11.422;2023-02-21T08:53:31;97345.19;;;12.57;75.97
17054;BME280;8643;48.824;11.422;2023-02-21T08:56:00;97344.81;;;12.16;76.19
17054;BME280;8643;48.824;11.422;2023-02-21T08:58:29;97355.03;;;12.79;76.29
17054;BME280;8643;48.824;11.422;2023-02-21T09:01:04;97346.25;;;13.19;72.97
17054;BME280;8643;48.824;11.422;2023-02-21T09:03:34;97347.94;;;12.57;72.11
17054;BME280;8643;48.824;11.422;2023-02-21T09:06:04;97354.72;;;13.14;71.09
17054;BME280;8643;48.824;11.422;2023-02-21T09:08:33;97354.91;;;13.88;70.12
17054;BME280;8643;48.824;11.422;2023-02-21T09:11:03;97353.44;;;13.32;67.45
17054;BME280;8643;48.824;11.422;2023-02-21T09:13:32;97354.50;;;12.64;71.37
17054;BME280;8643;48.824;11.422;2023-02-21T09:16:02;97352.81;;;13.27;71.26
17054;BME280;8643;48.824;11.422;2023-02-21T09:18:31;97356.31;;;12.81;70.13
17054;BME280;8643;48.824;11.422;2023-02-21T09:21:01;97359.59;;;12.54;71.44
17054;BME280;8643;48.824;11.422;2023-02-21T09:23:30;97358.97;;;12.48;75.42
17054;BME280;8643;48.824;11.422;2023-02-21T09:26:01;97363.56;;;12.14;72.04
17054;BME280;8643;48.824;11.422;2023-02-21T09:28:29;97368.59;;;11.65;75.71
17054;BME280;8643;48.824;11.422;2023-02-21T09:30:58;97353.91;;;10.96;80.56
17054;BME280;8643;48.824;11.422;2023-02-21T09:33:27;97351.50;;;10.86;79.14
17054;BME280;8643;48.824;11.422;2023-02-21T09:35:57;97352.00;;;10.79;80.84
17054;BME280;8643;48.824;11.422;2023-02-21T09:38:26;97348.28;;;10.40;80.60
17054;BME280;8643;48.824;11.422;2023-02-21T09:40:59;97349.28;;;9.95;85.61
17054;BME280;8643;48.824;11.422;2023-02-21T09:43:33;97343.94;;;10.82;81.34
17054;BME280;8643;48.824;11.422;2023-02-21T09:46:07;97352.88;;;11.35;79.56
17054;BME280;8643;48.824;11.422;2023-02-21T09:48:38;97352.53;;;11.46;78.72
17054;BME280;8643;48.824;11.422;2023-02-21T09:51:10;97347.31;;;10.53;81.15
17054;BME280;8643;48.824;11.422;2023-02-21T09:53:46;97342.81;;;10.66;80.79
17054;BME280;8643;48.824;11.422;2023-02-21T09:56:26;97336.47;;;11.18;79.33
17054;BME280;8643;48.824;11.422;2023-02-21T09:58:55;97338.09;;;12.05;75.84
17054;BME280;8643;48.824;11.422;2023-02-21T10:01:43;97338.16;;;12.68;73.23
17054;BME280;8643;48.824;11.422;2023-02-21T10:04:28;97336.41;;;13.64;70.29
17054;BME280;8643;48.824;11.422;2023-02-21T10:07:05;97342.84;;;14.17;66.95
17054;BME280;8643;48.824;11.422;2023-02-21T10:09:44;97340.69;;;13.86;67.16
17054;BME280;8643;48.824;11.422;2023-02-21T10:12:23;97345.03;;;13.99;66.05
17054;BME280;8643;48.824;11.422;2023-02-21T10:15:16;97345.50;;;15.96;58.23
17054;BME280;8643;48.824;11.422;2023-02-21T10:17:57;97345.38;;;16.08;56.18
17054;BME280;8643;48.824;11.422;2023-02-21T10:20:36;97353.16;;;16.02;54.95
17054;BME280;8643;48.824;11.422;2023-02-21T10:23:15;97349.31;;;16.78;54.24
17054;BME280;8643;48.824;11.422;2023-02-21T10:25:46;97350.00;;;17.30;50.27
17054;BME280;8643;48.824;11.422;2023-02-21T10:28:19;97347.88;;;17.43;52.54
17054;BME280;8643;48.824;11.422;2023-02-21T10:30:48;97353.06;;;17.44;50.50
17054;BME280;8643;48.824;11.422;2023-02-21T10:33:19;97354.22;;;17.43;50.46
17054;BME280;8643;48.824;11.422;2023-02-21T10:35:47;97354.84;;;17.56;49.97
17054;BME280;8643;48.824;11.422;2023-02-21T10:38:20;97356.28;;;18.16;49.99
17054;BME280;8643;48.824;11.422;2023-02-21T10:40:56;97352.28;;;18.40;46.33
17054;BME280;8643;48.824;11.422;2023-02-21T10:43:30;97358.09;;;18.04;48.63
17054;BME280;8643;48.824;11.422;2023-02-21T10:46:13;97355.84;;;18.67;46.45
17054;BME280;8643;48.824;11.422;2023-02-21T10:48:47;97357.06;;;17.89;47.37
17054;BME280;8643;48.824;11.422;2023-02-21T10:51:29;97355.78;;;15.67;53.69
17054;BME280;8643;48.824;11.422;2023-02-21T10:54:18;97353.72;;;14.51;56.77
17054;BME280;8643;48.824;11.422;2023-02-21T10:56:50;97346.97;;;14.11;60.42
17054;BME280;8643;48.824;11.422;2023-02-21T10:59:22;97341.53;;;14.52;59.75
17054;BME280;8643;48.824;11.422;2023-02-21T11:01:53;97336.06;;;15.36;56.84
17054;BME280;8643;48.824;11.422;2023-02-21T11:04:29;97330.19;;;16.34;54.45
17054;BME280;8643;48.824;11.422;2023-02-21T11:07:05;97329.50;;;17.54;52.03
17054;BME280;8643;48.824;11.422;2023-02-21T11:09:39;97331.47;;;16.20;52.18
17054;BME280;8643;48.824;11.422;2023-02-21T11:12:22;97320.06;;;16.77;51.65
17054;BME280;8643;48.824;11.422;2023-02-21T11:15:25;97313.38;;;17.17;51.21
17054;BME280;8643;48.824;11.422;2023-02-21T11:18:05;97311.56;;;18.74;47.59
17054;BME280;8643;48.824;11.422;2023-02-21T11:20:34;97305.38;;;17.31;49.18
17054;BME280;8643;48.824;11.422;2023-02-21T11:23:03;97292.31;;;16.89;50.21
17054;BME280;8643;48.824;11.422;2023-02-21T11:25:38;97293.09;;;16.90;49.99
17054;BME280;8643;48.824;11.422;2023-02-21T11:28:18;97290.19;;;17.02;50.07
17054;BME280;8643;48.824;11.422;2023-02-21T11:31:04;97290.41;;;16.74;50.19
17054;BME280;8643;48.824;11.422;2023-02-21T11:33:38;97280.25;;;17.44;50.50
17054;BME280;8643;48.824;11.422;2023-02-21T11:36:14;97279.91;;;17.91;49.91
17054;BME280;8643;48.824;11.422;2023-02-21T11:39:00;97278.53;;;19.30;46.75
17054;BME280;8643;48.824;11.422;2023-02-21T11:41:35;97271.72;;;18.86;46.21
17054;BME280;8643;48.824;11.422;2023-02-21T11:44:24;97266.81;;;18.45;48.60
17054;BME280;8643;48.824;11.422;2023-02-21T11:47:03;97271.31;;;18.00;50.89
17054;BME280;8643;48.824;11.422;2023-02-21T11:49:46;97264.59;;;18.28;48.56
17054;BME280;8643;48.824;11.422;2023-02-21T11:52:23;97266.34;;;18.40;47.82
17054;BME280;8643;48.824;11.422;2023-02-21T11:54:53;97265.50;;;18.66;50.14
17054;BME280;8643;48.824;11.422;2023-02-21T11:57:31;97253.75;;;18.16;48.79
17054;BME280;8643;48.824;11.422;2023-02-21T12:00:17;97256.66;;;18.57;47.53
17054;BME280;8643;48.824;11.422;2023-02-21T12:03:05;97247.81;;;18.78;47.93
17054;BME280;8643;48.824;11.422;2023-02-21T12:05:52;97251.72;;;18.43;49.04
17054;BME280;8643;48.824;11.422;2023-02-21T12:08:47;97243.06;;;18.48;48.86
17054;BME280;8643;48.824;11.422;2023-02-21T12:11:40;97244.53;;;18.38;47.58
17054;BME280;8643;48.824;11.422;2023-02-21T12:14:52;97231.13;;;20.01;44.91
17054;BME280;8643;48.824;11.422;2023-02-21T12:17:45;97231.22;;;21.00;44.12
17054;BME280;8643;48.824;11.422;2023-02-21T12:20:53;97228.78;;;20.07;45.26
17054;BME280;8643;48.824;11.422;2023-02-21T12:23:46;97218.69;;;18.00;49.63
17054;BME280;8643;48.824;11.422;2023-02-21T12:26:33;97215.09;;;19.32;47.55
17054;BME280;8643;48.824;11.422;2023-02-21T12:29:25;97210.94;;;19.11;46.33
17054;BME280;8643;48.824;11.422;2023-02-21T12:32:28;97209.78;;;19.16;45.90
17054;BME280;8643;48.824;11.422;2023-02-21T12:35:35;97195.56;;;18.49;47.95
17054;BME280;8643;48.824;11.422;2023-02-21T12:38:13;97189.94;;;18.12;48.24
17054;BME280;8643;48.824;11.422;2023-02-21T12:40:57;97196.06;;;18.25;49.10
17054;BME280;8643;48.824;11.422;2023-02-21T12:43:50;97177.94;;;20.03;46.21
17054;BME280;8643;48.824;11.422;2023-02-21T12:46:27;97176.09;;;19.66;44.94
17054;BME280;8643;48.824;11.422;2023-02-21T12:49:07;97184.75;;;19.57;45.02
17054;BME280;8643;48.824;11.422;2023-02-21T12:51:45;97175.06;;;20.73;44.06
17054;BME280;8643;48.824;11.422;2023-02-21T12:54:23;97162.78;;;19.89;45.22
17054;BME280;8643;48.824;11.422;2023-02-21T12:56:59;97164.75;;;20.73;42.93
17054;BME280;8643;48.824;11.422;2023-02-21T12:59:41;97155.94;;;20.57;42.77
17054;BME280;8643;48.824;11.422;2023-02-21T13:02:24;97150.34;;;20.49;43.73
17054;BME280;8643;48.824;11.422;2023-02-21T13:05:02;97151.66;;;19.37;44.99
17054;BME280;8643;48.824;11.422;2023-02-21T13:07:38;97140.69;;;19.55;46.07
17054;BME280;8643;48.824;11.422;2023-02-21T13:10:17;97135.25;;;19.73;44.05
17054;BME280;8643;48.824;11.422;2023-02-21T13:12:54;97126.91;;;19.14;47.55
17054;BME280;8643;48.824;11.422;2023-02-21T13:15:28;97126.59;;;18.82;47.01
17054;BME280;8643;48.824;11.422;2023-02-21T13:18:01;97121.59;;;18.95;46.15
17054;BME280;8643;48.824;11.422;2023-02-21T13:20:40;97114.28;;;19.80;44.72
17054;BME280;8643;48.824;11.422;2023-02-21T13:27:34;97107.66;;;18.88;45.79
17054;BME280;8643;48.824;11.422;2023-02-21T13:30:16;97103.72;;;17.87;47.96
17054;BME280;8643;48.824;11.422;2023-02-21T13:32:52;97097.75;;;18.90;47.73
17054;BME280;8643;48.824;11.422;2023-02-21T13:35:29;97089.94;;;18.62;46.48
17054;BME280;8643;48.824;11.422;2023-02-21T13:38:03;97086.28;;;17.56;49.58
17054;BME280;8643;48.824;11.422;2023-02-21T13:40:37;97084.72;;;16.59;51.45
17054;BME280;8643;48.824;11.422;2023-02-21T13:43:12;97083.78;;;17.20;51.59
17054;BME280;8643;48.824;11.422;2023-02-21T13:45:43;97072.09;;;17.31;50.63
17054;BME280;8643;48.824;11.422;2023-02-21T13:48:30;97075.41;;;18.01;48.98
17054;BME280;8643;48.824;11.422;2023-02-21T13:50:59;97062.59;;;18.60;47.72
17054;BME280;8643;48.824;11.422;2023-02-21T13:53:32;97068.97;;;18.64;48.24
17054;BME280;8643;48.824;11.422;2023-02-21T13:56:17;97054.63;;;19.00;46.87
17054;BME280;8643;48.824;11.422;2023-02-21T13:58:48;97051.28;;;18.80;47.24